Alsea, Oregon
Current Conditions -  °F | °C
As of 11:55 AM on Thursday 30 Oct 2014 (Local Time) from KCVO Reporting Station
Overcast Overcast  
Wind Chill: 14°   Ceiling: 300
Heat Index: 14°   Visibility: 1.2mi
Dew Point: 13°   Wind: 6mph
Humidity: 94%   Direction: 90°E
Pressure: 29.86"   Gusts: NA
Location:  44.38°N, 123.6°W
Report Text: KCVO 301855Z AUTO 09005KT 1 1/4SM BKN003 BKN075 OVC120 14/13 A2986 RMK AO1
Loading
Personal Weather Stations






























Interactive Weather Map
Tropical Storm Tracking
New forecast layout! Learn more

10-Day Weather Forecast

Advertisements
Track Severe Weather on mobile